CWSA

Sable Island Airport

Nova Scotia, Canada
METAR CWSA 250600Z AUTO 30004KT 3SM BR OVC013 12/11 A2980 RMK SLP092
Observed Flight Rules
Jun-25 @ 06:00 UTC (21 minutes ago) Marginal Visual Flight Rules
Wind Visibility Clouds Conditions
300° at 4 knots 3 miles
  • Overcast at 1,300' AGL
  • Mist
Temperatures Readings
Current 12°C / 54°F
Dewpoint 11°C / 52°F
Humidity 94%
Altimeter 29.8" Hg
Pressure 1009.2 hPa
Elevation 4
METAR CWSA 250600Z AUTO 30004KT 3SM BR OVC013 12/11 A2980 RMK SLP092
Observed Flight Rules
Jun-25 @ 06:00 UTC
(21 minutes ago)
MVFR
Wind Visibility
300° at 4 knots 3 miles
Clouds
  • Overcast at 1,300' AGL
Conditions
  • Mist
Temperature Dewpoint
12°C / 54°F 11°C / 52°F
Humidity Altimeter Pressure
94% 29.8" Hg 1009.2 hPa